sensor_id;sensor_type;location;lat;lon;timestamp;P1;durP1;ratioP1;P2;durP2;ratioP2
57331;SDS011;43164;50.908;18.092;2022-08-25T00:02:07;67.90;;;40.20;;
57331;SDS011;43164;50.908;18.092;2022-08-25T00:04:37;61.80;;;35.70;;
57331;SDS011;43164;50.908;18.092;2022-08-25T00:07:05;98.30;;;30.70;;
57331;SDS011;43164;50.908;18.092;2022-08-25T00:09:33;91.90;;;34.10;;
57331;SDS011;43164;50.908;18.092;2022-08-25T00:12:02;58.00;;;33.70;;
57331;SDS011;43164;50.908;18.092;2022-08-25T00:14:32;48.00;;;32.50;;
57331;SDS011;43164;50.908;18.092;2022-08-25T00:17:02;46.20;;;31.50;;
57331;SDS011;43164;50.908;18.092;2022-08-25T00:19:32;64.30;;;31.10;;
57331;SDS011;43164;50.908;18.092;2022-08-25T00:22:02;70.10;;;28.90;;
57331;SDS011;43164;50.908;18.092;2022-08-25T00:24:31;66.10;;;28.90;;
57331;SDS011;43164;50.908;18.092;2022-08-25T00:26:59;72.00;;;29.00;;
57331;SDS011;43164;50.908;18.092;2022-08-25T00:29:28;80.60;;;27.90;;
57331;SDS011;43164;50.908;18.092;2022-08-25T00:31:56;90.20;;;27.90;;
57331;SDS011;43164;50.908;18.092;2022-08-25T00:34:32;55.90;;;28.70;;
57331;SDS011;43164;50.908;18.092;2022-08-25T00:37:05;49.20;;;26.60;;
57331;SDS011;43164;50.908;18.092;2022-08-25T00:39:35;42.50;;;23.90;;
57331;SDS011;43164;50.908;18.092;2022-08-25T00:42:04;42.40;;;23.60;;
57331;SDS011;43164;50.908;18.092;2022-08-25T00:44:32;33.50;;;16.20;;
57331;SDS011;43164;50.908;18.092;2022-08-25T00:47:01;40.00;;;16.00;;
57331;SDS011;43164;50.908;18.092;2022-08-25T00:49:33;31.80;;;14.90;;
57331;SDS011;43164;50.908;18.092;2022-08-25T00:52:09;31.30;;;12.80;;
57331;SDS011;43164;50.908;18.092;2022-08-25T00:57:42;30.90;;;16.40;;
57331;SDS011;43164;50.908;18.092;2022-08-25T01:00:16;55.90;;;17.30;;
57331;SDS011;43164;50.908;18.092;2022-08-25T01:03:05;25.30;;;17.50;;
57331;SDS011;43164;50.908;18.092;2022-08-25T01:05:34;24.90;;;16.40;;
57331;SDS011;43164;50.908;18.092;2022-08-25T01:08:02;20.30;;;14.60;;
57331;SDS011;43164;50.908;18.092;2022-08-25T01:10:36;21.30;;;14.90;;
57331;SDS011;43164;50.908;18.092;2022-08-25T01:13:13;26.80;;;13.90;;
57331;SDS011;43164;50.908;18.092;2022-08-25T01:15:53;23.20;;;16.00;;
57331;SDS011;43164;50.908;18.092;2022-08-25T01:18:25;23.30;;;16.40;;
57331;SDS011;43164;50.908;18.092;2022-08-25T01:20:54;28.60;;;17.20;;
57331;SDS011;43164;50.908;18.092;2022-08-25T01:23:23;23.60;;;16.20;;
57331;SDS011;43164;50.908;18.092;2022-08-25T01:26:03;25.00;;;16.10;;
57331;SDS011;43164;50.908;18.092;2022-08-25T01:28:35;48.50;;;17.10;;
57331;SDS011;43164;50.908;18.092;2022-08-25T01:31:04;42.80;;;17.60;;
57331;SDS011;43164;50.908;18.092;2022-08-25T01:33:32;40.10;;;19.60;;
57331;SDS011;43164;50.908;18.092;2022-08-25T01:36:01;43.70;;;17.30;;
57331;SDS011;43164;50.908;18.092;2022-08-25T01:38:29;50.40;;;19.80;;
57331;SDS011;43164;50.908;18.092;2022-08-25T01:40:57;82.70;;;19.70;;
57331;SDS011;43164;50.908;18.092;2022-08-25T01:43:34;57.80;;;20.20;;
57331;SDS011;43164;50.908;18.092;2022-08-25T01:46:05;32.60;;;20.20;;
57331;SDS011;43164;50.908;18.092;2022-08-25T01:48:33;24.80;;;18.70;;
57331;SDS011;43164;50.908;18.092;2022-08-25T01:51:01;25.10;;;18.50;;
57331;SDS011;43164;50.908;18.092;2022-08-25T01:53:29;26.20;;;18.50;;
57331;SDS011;43164;50.908;18.092;2022-08-25T01:55:57;23.40;;;17.40;;
57331;SDS011;43164;50.908;18.092;2022-08-25T01:58:29;21.20;;;15.10;;
57331;SDS011;43164;50.908;18.092;2022-08-25T02:01:00;19.70;;;15.00;;
57331;SDS011;43164;50.908;18.092;2022-08-25T02:03:30;25.20;;;14.70;;
57331;SDS011;43164;50.908;18.092;2022-08-25T02:06:01;27.50;;;16.40;;
57331;SDS011;43164;50.908;18.092;2022-08-25T02:08:29;26.20;;;17.50;;
57331;SDS011;43164;50.908;18.092;2022-08-25T02:10:57;26.10;;;16.10;;
57331;SDS011;43164;50.908;18.092;2022-08-25T02:13:25;22.20;;;15.20;;
57331;SDS011;43164;50.908;18.092;2022-08-25T02:15:53;17.10;;;12.60;;
57331;SDS011;43164;50.908;18.092;2022-08-25T02:18:23;18.00;;;13.70;;
57331;SDS011;43164;50.908;18.092;2022-08-25T02:20:50;17.70;;;14.00;;
57331;SDS011;43164;50.908;18.092;2022-08-25T02:23:18;15.70;;;12.10;;
57331;SDS011;43164;50.908;18.092;2022-08-25T02:25:48;17.70;;;11.20;;
57331;SDS011;43164;50.908;18.092;2022-08-25T02:28:16;18.30;;;13.50;;
57331;SDS011;43164;50.908;18.092;2022-08-25T02:30:44;16.90;;;12.80;;
57331;SDS011;43164;50.908;18.092;2022-08-25T02:33:11;17.90;;;13.60;;
57331;SDS011;43164;50.908;18.092;2022-08-25T02:35:39;16.60;;;12.60;;
57331;SDS011;43164;50.908;18.092;2022-08-25T02:38:07;17.70;;;12.60;;
57331;SDS011;43164;50.908;18.092;2022-08-25T02:40:34;16.00;;;11.50;;
57331;SDS011;43164;50.908;18.092;2022-08-25T02:43:02;18.10;;;12.20;;
57331;SDS011;43164;50.908;18.092;2022-08-25T02:45:30;16.40;;;11.30;;
57331;SDS011;43164;50.908;18.092;2022-08-25T02:47:58;14.10;;;9.70;;
57331;SDS011;43164;50.908;18.092;2022-08-25T02:50:25;12.40;;;9.70;;
57331;SDS011;43164;50.908;18.092;2022-08-25T02:52:52;11.10;;;8.60;;
57331;SDS011;43164;50.908;18.092;2022-08-25T02:55:19;12.30;;;9.20;;
57331;SDS011;43164;50.908;18.092;2022-08-25T02:57:47;13.40;;;8.80;;
57331;SDS011;43164;50.908;18.092;2022-08-25T03:00:14;10.50;;;7.70;;
57331;SDS011;43164;50.908;18.092;2022-08-25T03:02:42;11.60;;;8.60;;
57331;SDS011;43164;50.908;18.092;2022-08-25T03:05:10;11.30;;;8.40;;
57331;SDS011;43164;50.908;18.092;2022-08-25T03:07:40;13.80;;;8.80;;
57331;SDS011;43164;50.908;18.092;2022-08-25T03:10:08;12.40;;;7.30;;
57331;SDS011;43164;50.908;18.092;2022-08-25T03:12:38;13.50;;;7.70;;
57331;SDS011;43164;50.908;18.092;2022-08-25T03:15:09;13.30;;;7.60;;
57331;SDS011;43164;50.908;18.092;2022-08-25T03:17:37;12.90;;;7.30;;
57331;SDS011;43164;50.908;18.092;2022-08-25T03:20:05;12.60;;;7.10;;
57331;SDS011;43164;50.908;18.092;2022-08-25T03:22:34;12.10;;;7.10;;
57331;SDS011;43164;50.908;18.092;2022-08-25T03:25:02;12.00;;;8.10;;
57331;SDS011;43164;50.908;18.092;2022-08-25T03:27:49;13.60;;;8.80;;
57331;SDS011;43164;50.908;18.092;2022-08-25T03:30:16;11.10;;;8.00;;
57331;SDS011;43164;50.908;18.092;2022-08-25T03:32:45;15.90;;;8.80;;
57331;SDS011;43164;50.908;18.092;2022-08-25T03:35:11;16.10;;;9.10;;
57331;SDS011;43164;50.908;18.092;2022-08-25T03:37:39;13.50;;;8.90;;
57331;SDS011;43164;50.908;18.092;2022-08-25T03:40:07;13.70;;;8.80;;
57331;SDS011;43164;50.908;18.092;2022-08-25T03:42:40;14.60;;;8.70;;
57331;SDS011;43164;50.908;18.092;2022-08-25T03:45:09;15.60;;;8.70;;
57331;SDS011;43164;50.908;18.092;2022-08-25T03:47:38;17.90;;;8.70;;
57331;SDS011;43164;50.908;18.092;2022-08-25T03:50:07;15.10;;;8.20;;
57331;SDS011;43164;50.908;18.092;2022-08-25T03:52:36;13.20;;;7.80;;
57331;SDS011;43164;50.908;18.092;2022-08-25T03:55:05;12.80;;;6.80;;
57331;SDS011;43164;50.908;18.092;2022-08-25T03:57:35;10.90;;;6.30;;
57331;SDS011;43164;50.908;18.092;2022-08-25T04:00:05;10.50;;;6.50;;
57331;SDS011;43164;50.908;18.092;2022-08-25T04:02:35;12.80;;;6.90;;
57331;SDS011;43164;50.908;18.092;2022-08-25T04:05:03;12.60;;;7.40;;
57331;SDS011;43164;50.908;18.092;2022-08-25T04:07:32;11.60;;;7.30;;
57331;SDS011;43164;50.908;18.092;2022-08-25T04:10:00;13.90;;;7.90;;
57331;SDS011;43164;50.908;18.092;2022-08-25T04:12:28;10.60;;;7.00;;
57331;SDS011;43164;50.908;18.092;2022-08-25T04:14:56;11.50;;;6.60;;
57331;SDS011;43164;50.908;18.092;2022-08-25T04:17:24;12.00;;;6.80;;
57331;SDS011;43164;50.908;18.092;2022-08-25T04:19:52;10.60;;;6.20;;
57331;SDS011;43164;50.908;18.092;2022-08-25T04:22:21;9.20;;;5.70;;
57331;SDS011;43164;50.908;18.092;2022-08-25T04:24:49;10.80;;;6.40;;
57331;SDS011;43164;50.908;18.092;2022-08-25T04:27:18;9.80;;;5.90;;
57331;SDS011;43164;50.908;18.092;2022-08-25T04:29:46;10.20;;;6.50;;
57331;SDS011;43164;50.908;18.092;2022-08-25T04:32:15;11.30;;;6.30;;
57331;SDS011;43164;50.908;18.092;2022-08-25T04:34:43;14.10;;;8.80;;
57331;SDS011;43164;50.908;18.092;2022-08-25T04:37:14;22.20;;;12.90;;
57331;SDS011;43164;50.908;18.092;2022-08-25T04:39:43;20.60;;;11.60;;
57331;SDS011;43164;50.908;18.092;2022-08-25T04:42:11;17.10;;;11.20;;
57331;SDS011;43164;50.908;18.092;2022-08-25T04:44:40;20.90;;;11.20;;
57331;SDS011;43164;50.908;18.092;2022-08-25T04:47:07;18.60;;;12.70;;
57331;SDS011;43164;50.908;18.092;2022-08-25T04:49:36;20.60;;;11.90;;
57331;SDS011;43164;50.908;18.092;2022-08-25T04:52:05;21.20;;;12.60;;
57331;SDS011;43164;50.908;18.092;2022-08-25T04:54:33;18.80;;;11.60;;
57331;SDS011;43164;50.908;18.092;2022-08-25T04:57:02;18.50;;;11.10;;
57331;SDS011;43164;50.908;18.092;2022-08-25T04:59:30;20.20;;;11.20;;
57331;SDS011;43164;50.908;18.092;2022-08-25T05:01:59;20.60;;;11.30;;
57331;SDS011;43164;50.908;18.092;2022-08-25T05:04:33;22.90;;;12.30;;
57331;SDS011;43164;50.908;18.092;2022-08-25T05:07:02;18.40;;;11.10;;
57331;SDS011;43164;50.908;18.092;2022-08-25T05:09:31;17.40;;;9.30;;
57331;SDS011;43164;50.908;18.092;2022-08-25T05:11:59;21.40;;;10.60;;
57331;SDS011;43164;50.908;18.092;2022-08-25T05:14:28;20.20;;;10.50;;
57331;SDS011;43164;50.908;18.092;2022-08-25T05:16:57;17.40;;;10.20;;
57331;SDS011;43164;50.908;18.092;2022-08-25T05:19:25;18.20;;;9.40;;
57331;SDS011;43164;50.908;18.092;2022-08-25T05:21:53;21.30;;;9.70;;
57331;SDS011;43164;50.908;18.092;2022-08-25T05:24:22;17.80;;;10.50;;
57331;SDS011;43164;50.908;18.092;2022-08-25T05:27:00;18.80;;;9.90;;
57331;SDS011;43164;50.908;18.092;2022-08-25T05:29:30;19.40;;;10.10;;
57331;SDS011;43164;50.908;18.092;2022-08-25T05:31:58;19.50;;;9.70;;
57331;SDS011;43164;50.908;18.092;2022-08-25T05:34:27;19.80;;;9.90;;
57331;SDS011;43164;50.908;18.092;2022-08-25T05:36:56;18.40;;;9.50;;
57331;SDS011;43164;50.908;18.092;2022-08-25T05:39:26;16.80;;;8.50;;
57331;SDS011;43164;50.908;18.092;2022-08-25T05:42:00;17.50;;;8.40;;
57331;SDS011;43164;50.908;18.092;2022-08-25T05:44:28;16.10;;;8.80;;
57331;SDS011;43164;50.908;18.092;2022-08-25T05:46:57;19.80;;;9.20;;
57331;SDS011;43164;50.908;18.092;2022-08-25T05:49:26;19.50;;;8.60;;
57331;SDS011;43164;50.908;18.092;2022-08-25T05:51:56;17.10;;;7.80;;
57331;SDS011;43164;50.908;18.092;2022-08-25T05:54:26;17.30;;;8.20;;
57331;SDS011;43164;50.908;18.092;2022-08-25T05:56:53;16.80;;;7.60;;
57331;SDS011;43164;50.908;18.092;2022-08-25T05:59:33;15.90;;;7.40;;
57331;SDS011;43164;50.908;18.092;2022-08-25T06:02:02;15.20;;;6.60;;
57331;SDS011;43164;50.908;18.092;2022-08-25T06:04:50;11.20;;;5.60;;
57331;SDS011;43164;50.908;18.092;2022-08-25T06:07:19;16.00;;;7.10;;
57331;SDS011;43164;50.908;18.092;2022-08-25T06:09:47;17.30;;;6.40;;
57331;SDS011;43164;50.908;18.092;2022-08-25T06:12:16;14.70;;;6.60;;
57331;SDS011;43164;50.908;18.092;2022-08-25T06:14:46;17.60;;;7.00;;
57331;SDS011;43164;50.908;18.092;2022-08-25T06:17:16;14.90;;;6.70;;
57331;SDS011;43164;50.908;18.092;2022-08-25T06:19:44;14.60;;;6.10;;
57331;SDS011;43164;50.908;18.092;2022-08-25T06:22:13;17.30;;;7.00;;
57331;SDS011;43164;50.908;18.092;2022-08-25T06:24:42;14.40;;;6.60;;
57331;SDS011;43164;50.908;18.092;2022-08-25T06:27:11;14.90;;;7.00;;
57331;SDS011;43164;50.908;18.092;2022-08-25T06:29:40;14.50;;;6.50;;
57331;SDS011;43164;50.908;18.092;2022-08-25T06:32:07;17.70;;;7.70;;
57331;SDS011;43164;50.908;18.092;2022-08-25T06:34:36;16.40;;;8.20;;
57331;SDS011;43164;50.908;18.092;2022-08-25T06:37:04;15.90;;;7.30;;
57331;SDS011;43164;50.908;18.092;2022-08-25T06:39:33;19.40;;;8.50;;
57331;SDS011;43164;50.908;18.092;2022-08-25T06:42:01;17.40;;;8.10;;
57331;SDS011;43164;50.908;18.092;2022-08-25T06:44:30;15.10;;;7.40;;
57331;SDS011;43164;50.908;18.092;2022-08-25T06:46:58;14.50;;;6.80;;
57331;SDS011;43164;50.908;18.092;2022-08-25T06:49:27;21.90;;;7.90;;
57331;SDS011;43164;50.908;18.092;2022-08-25T06:51:56;20.70;;;7.40;;
57331;SDS011;43164;50.908;18.092;2022-08-25T06:54:24;16.20;;;6.80;;
57331;SDS011;43164;50.908;18.092;2022-08-25T06:56:53;15.00;;;5.50;;
57331;SDS011;43164;50.908;18.092;2022-08-25T06:59:21;16.80;;;5.90;;
57331;SDS011;43164;50.908;18.092;2022-08-25T07:01:50;15.30;;;5.40;;
57331;SDS011;43164;50.908;18.092;2022-08-25T07:04:18;14.50;;;5.70;;
57331;SDS011;43164;50.908;18.092;2022-08-25T07:06:48;15.40;;;5.60;;
57331;SDS011;43164;50.908;18.092;2022-08-25T07:09:20;16.00;;;5.30;;
57331;SDS011;43164;50.908;18.092;2022-08-25T07:11:49;15.30;;;5.20;;
57331;SDS011;43164;50.908;18.092;2022-08-25T07:14:18;13.10;;;4.80;;
57331;SDS011;43164;50.908;18.092;2022-08-25T07:16:47;14.20;;;4.60;;
57331;SDS011;43164;50.908;18.092;2022-08-25T07:19:16;12.90;;;4.00;;
57331;SDS011;43164;50.908;18.092;2022-08-25T07:21:48;13.10;;;4.80;;
57331;SDS011;43164;50.908;18.092;2022-08-25T07:24:18;12.00;;;3.80;;
57331;SDS011;43164;50.908;18.092;2022-08-25T07:26:46;13.40;;;3.70;;
57331;SDS011;43164;50.908;18.092;2022-08-25T07:29:17;13.60;;;4.50;;
57331;SDS011;43164;50.908;18.092;2022-08-25T07:31:48;13.00;;;3.90;;
57331;SDS011;43164;50.908;18.092;2022-08-25T07:34:17;11.90;;;3.50;;
57331;SDS011;43164;50.908;18.092;2022-08-25T07:37:04;12.10;;;3.60;;
57331;SDS011;43164;50.908;18.092;2022-08-25T07:39:33;14.00;;;4.00;;
57331;SDS011;43164;50.908;18.092;2022-08-25T07:42:01;15.60;;;3.60;;
57331;SDS011;43164;50.908;18.092;2022-08-25T07:44:31;12.20;;;2.90;;
57331;SDS011;43164;50.908;18.092;2022-08-25T07:47:00;15.30;;;3.90;;
57331;SDS011;43164;50.908;18.092;2022-08-25T07:49:28;14.20;;;3.40;;
57331;SDS011;43164;50.908;18.092;2022-08-25T07:51:56;16.50;;;3.20;;
57331;SDS011;43164;50.908;18.092;2022-08-25T07:54:25;15.10;;;3.50;;
57331;SDS011;43164;50.908;18.092;2022-08-25T07:56:54;17.80;;;3.20;;
57331;SDS011;43164;50.908;18.092;2022-08-25T07:59:24;12.80;;;3.60;;
57331;SDS011;43164;50.908;18.092;2022-08-25T08:01:52;12.60;;;3.60;;
57331;SDS011;43164;50.908;18.092;2022-08-25T08:04:21;14.70;;;3.80;;
57331;SDS011;43164;50.908;18.092;2022-08-25T08:06:49;16.70;;;3.40;;
57331;SDS011;43164;50.908;18.092;2022-08-25T08:09:18;17.40;;;4.00;;
57331;SDS011;43164;50.908;18.092;2022-08-25T08:11:46;13.60;;;3.00;;
57331;SDS011;43164;50.908;18.092;2022-08-25T08:14:14;18.20;;;3.70;;
57331;SDS011;43164;50.908;18.092;2022-08-25T08:16:44;15.90;;;2.80;;
57331;SDS011;43164;50.908;18.092;2022-08-25T08:19:13;15.40;;;3.30;;
57331;SDS011;43164;50.908;18.092;2022-08-25T08:21:42;12.40;;;3.00;;
57331;SDS011;43164;50.908;18.092;2022-08-25T08:24:13;18.70;;;3.00;;
57331;SDS011;43164;50.908;18.092;2022-08-25T08:26:42;14.40;;;3.00;;
57331;SDS011;43164;50.908;18.092;2022-08-25T08:29:10;18.30;;;3.00;;
57331;SDS011;43164;50.908;18.092;2022-08-25T08:31:39;18.20;;;3.30;;
57331;SDS011;43164;50.908;18.092;2022-08-25T08:34:14;15.10;;;3.10;;
57331;SDS011;43164;50.908;18.092;2022-08-25T08:36:43;16.50;;;3.10;;
57331;SDS011;43164;50.908;18.092;2022-08-25T08:39:17;14.80;;;3.20;;
57331;SDS011;43164;50.908;18.092;2022-08-25T08:44:48;18.40;;;3.30;;
57331;SDS011;43164;50.908;18.092;2022-08-25T08:47:36;14.80;;;3.20;;
57331;SDS011;43164;50.908;18.092;2022-08-25T08:50:33;23.40;;;4.00;;
57331;SDS011;43164;50.908;18.092;2022-08-25T08:53:36;18.30;;;3.10;;
57331;SDS011;43164;50.908;18.092;2022-08-25T08:56:13;21.00;;;3.20;;
57331;SDS011;43164;50.908;18.092;2022-08-25T08:58:51;18.90;;;3.20;;
57331;SDS011;43164;50.908;18.092;2022-08-25T09:01:34;16.20;;;3.80;;
57331;SDS011;43164;50.908;18.092;2022-08-25T09:04:14;15.70;;;3.10;;
57331;SDS011;43164;50.908;18.092;2022-08-25T09:07:16;15.60;;;3.60;;
57331;SDS011;43164;50.908;18.092;2022-08-25T09:10:25;20.70;;;4.00;;
57331;SDS011;43164;50.908;18.092;2022-08-25T09:13:49;24.20;;;3.60;;
57331;SDS011;43164;50.908;18.092;2022-08-25T09:22:49;18.30;;;3.40;;
57331;SDS011;43164;50.908;18.092;2022-08-25T09:25:40;21.10;;;4.10;;
57331;SDS011;43164;50.908;18.092;2022-08-25T09:28:57;14.80;;;3.80;;
57331;SDS011;43164;50.908;18.092;2022-08-25T09:31:45;21.50;;;4.20;;
57331;SDS011;43164;50.908;18.092;2022-08-25T09:34:22;22.20;;;3.90;;
57331;SDS011;43164;50.908;18.092;2022-08-25T09:36:57;23.00;;;3.90;;
57331;SDS011;43164;50.908;18.092;2022-08-25T09:39:40;21.10;;;3.70;;
57331;SDS011;43164;50.908;18.092;2022-08-25T09:42:13;18.40;;;3.60;;
57331;SDS011;43164;50.908;18.092;2022-08-25T09:44:45;19.70;;;3.80;;
57331;SDS011;43164;50.908;18.092;2022-08-25T09:47:21;18.90;;;3.90;;
57331;SDS011;43164;50.908;18.092;2022-08-25T09:50:01;18.40;;;4.00;;
57331;SDS011;43164;50.908;18.092;2022-08-25T09:52:35;24.30;;;3.40;;
57331;SDS011;43164;50.908;18.092;2022-08-25T09:57:37;28.70;;;4.20;;
57331;SDS011;43164;50.908;18.092;2022-08-25T10:00:30;25.80;;;4.90;;
57331;SDS011;43164;50.908;18.092;2022-08-25T10:03:13;27.70;;;4.50;;
57331;SDS011;43164;50.908;18.092;2022-08-25T10:11:35;26.00;;;4.30;;
57331;SDS011;43164;50.908;18.092;2022-08-25T10:14:06;24.40;;;4.60;;
57331;SDS011;43164;50.908;18.092;2022-08-25T10:16:46;23.10;;;4.20;;
57331;SDS011;43164;50.908;18.092;2022-08-25T10:22:07;27.40;;;4.30;;
57331;SDS011;43164;50.908;18.092;2022-08-25T10:24:52;23.50;;;4.10;;
57331;SDS011;43164;50.908;18.092;2022-08-25T10:27:35;25.20;;;3.80;;
57331;SDS011;43164;50.908;18.092;2022-08-25T10:33:38;28.60;;;4.60;;
57331;SDS011;43164;50.908;18.092;2022-08-25T10:36:24;28.90;;;5.00;;
57331;SDS011;43164;50.908;18.092;2022-08-25T10:39:41;28.80;;;4.50;;
57331;SDS011;43164;50.908;18.092;2022-08-25T10:42:37;23.40;;;4.60;;
57331;SDS011;43164;50.908;18.092;2022-08-25T10:45:24;25.10;;;4.20;;
57331;SDS011;43164;50.908;18.092;2022-08-25T10:56:21;27.90;;;4.50;;
57331;SDS011;43164;50.908;18.092;2022-08-25T11:07:28;25.40;;;5.40;;
57331;SDS011;43164;50.908;18.092;2022-08-25T11:10:07;24.80;;;4.90;;
57331;SDS011;43164;50.908;18.092;2022-08-25T11:12:45;26.80;;;5.50;;
57331;SDS011;43164;50.908;18.092;2022-08-25T11:15:23;24.60;;;5.00;;
57331;SDS011;43164;50.908;18.092;2022-08-25T11:18:11;27.10;;;5.20;;
57331;SDS011;43164;50.908;18.092;2022-08-25T11:20:44;20.30;;;4.30;;
57331;SDS011;43164;50.908;18.092;2022-08-25T11:23:36;22.80;;;4.30;;
57331;SDS011;43164;50.908;18.092;2022-08-25T11:26:27;22.20;;;5.40;;
57331;SDS011;43164;50.908;18.092;2022-08-25T11:29:15;27.40;;;4.90;;
57331;SDS011;43164;50.908;18.092;2022-08-25T11:31:50;29.50;;;5.00;;
57331;SDS011;43164;50.908;18.092;2022-08-25T11:34:20;27.10;;;5.70;;
57331;SDS011;43164;50.908;18.092;2022-08-25T11:36:50;26.30;;;5.30;;
57331;SDS011;43164;50.908;18.092;2022-08-25T11:42:14;31.00;;;5.50;;
57331;SDS011;43164;50.908;18.092;2022-08-25T11:50:08;23.80;;;5.50;;
57331;SDS011;43164;50.908;18.092;2022-08-25T11:53:27;26.50;;;5.10;;
57331;SDS011;43164;50.908;18.092;2022-08-25T11:56:08;28.10;;;6.10;;
57331;SDS011;43164;50.908;18.092;2022-08-25T12:12:31;24.10;;;5.50;;
57331;SDS011;43164;50.908;18.092;2022-08-25T12:23:39;20.30;;;5.40;;
57331;SDS011;43164;50.908;18.092;2022-08-25T12:26:31;30.00;;;5.50;;
57331;SDS011;43164;50.908;18.092;2022-08-25T12:31:59;22.00;;;5.10;;
57331;SDS011;43164;50.908;18.092;2022-08-25T12:37:56;21.60;;;4.50;;
57331;SDS011;43164;50.908;18.092;2022-08-25T12:40:34;27.40;;;5.00;;
57331;SDS011;43164;50.908;18.092;2022-08-25T12:45:50;23.80;;;4.30;;
57331;SDS011;43164;50.908;18.092;2022-08-25T12:50:56;27.50;;;5.80;;
57331;SDS011;43164;50.908;18.092;2022-08-25T12:56:22;32.60;;;5.50;;
57331;SDS011;43164;50.908;18.092;2022-08-25T13:04:37;26.90;;;5.10;;
57331;SDS011;43164;50.908;18.092;2022-08-25T13:10:14;23.30;;;4.80;;
57331;SDS011;43164;50.908;18.092;2022-08-25T13:12:50;29.60;;;5.60;;
57331;SDS011;43164;50.908;18.092;2022-08-25T13:15:37;31.90;;;5.00;;
57331;SDS011;43164;50.908;18.092;2022-08-25T13:18:18;24.20;;;4.30;;
57331;SDS011;43164;50.908;18.092;2022-08-25T13:20:51;31.70;;;5.50;;
57331;SDS011;43164;50.908;18.092;2022-08-25T13:23:37;26.70;;;4.50;;
57331;SDS011;43164;50.908;18.092;2022-08-25T13:26:11;23.60;;;4.50;;
57331;SDS011;43164;50.908;18.092;2022-08-25T13:28:59;27.60;;;5.00;;
57331;SDS011;43164;50.908;18.092;2022-08-25T13:31:34;32.20;;;5.00;;
57331;SDS011;43164;50.908;18.092;2022-08-25T13:34:16;23.10;;;4.90;;
57331;SDS011;43164;50.908;18.092;2022-08-25T13:36:49;30.50;;;4.80;;
57331;SDS011;43164;50.908;18.092;2022-08-25T13:42:51;41.00;;;5.40;;
57331;SDS011;43164;50.908;18.092;2022-08-25T13:45:34;28.10;;;4.90;;
57331;SDS011;43164;50.908;18.092;2022-08-25T13:48:29;26.70;;;4.90;;
57331;SDS011;43164;50.908;18.092;2022-08-25T13:51:36;24.80;;;4.40;;
57331;SDS011;43164;50.908;18.092;2022-08-25T13:54:21;20.00;;;4.60;;
57331;SDS011;43164;50.908;18.092;2022-08-25T13:57:10;16.10;;;4.30;;
57331;SDS011;43164;50.908;18.092;2022-08-25T13:59:48;25.90;;;6.00;;
57331;SDS011;43164;50.908;18.092;2022-08-25T14:05:35;25.40;;;4.50;;
57331;SDS011;43164;50.908;18.092;2022-08-25T14:08:30;24.30;;;4.90;;
57331;SDS011;43164;50.908;18.092;2022-08-25T14:11:06;21.30;;;4.90;;
57331;SDS011;43164;50.908;18.092;2022-08-25T14:13:58;30.40;;;5.40;;
57331;SDS011;43164;50.908;18.092;2022-08-25T14:16:39;25.50;;;5.10;;
57331;SDS011;43164;50.908;18.092;2022-08-25T14:19:21;28.90;;;6.20;;
57331;SDS011;43164;50.908;18.092;2022-08-25T14:21:50;25.10;;;4.50;;
57331;SDS011;43164;50.908;18.092;2022-08-25T14:24:34;22.20;;;4.70;;
57331;SDS011;43164;50.908;18.092;2022-08-25T14:27:03;28.90;;;5.60;;
57331;SDS011;43164;50.908;18.092;2022-08-25T14:29:32;24.10;;;5.00;;
57331;SDS011;43164;50.908;18.092;2022-08-25T14:32:01;26.60;;;5.00;;
57331;SDS011;43164;50.908;18.092;2022-08-25T14:34:33;25.40;;;4.80;;
57331;SDS011;43164;50.908;18.092;2022-08-25T14:39:39;20.20;;;4.50;;
57331;SDS011;43164;50.908;18.092;2022-08-25T14:42:08;21.70;;;4.70;;
57331;SDS011;43164;50.908;18.092;2022-08-25T14:44:36;28.10;;;5.00;;
57331;SDS011;43164;50.908;18.092;2022-08-25T14:47:05;23.50;;;4.90;;
57331;SDS011;43164;50.908;18.092;2022-08-25T14:49:36;19.70;;;4.40;;
57331;SDS011;43164;50.908;18.092;2022-08-25T14:52:09;27.60;;;5.60;;
57331;SDS011;43164;50.908;18.092;2022-08-25T14:54:51;26.30;;;5.40;;
57331;SDS011;43164;50.908;18.092;2022-08-25T14:57:20;22.10;;;4.80;;
57331;SDS011;43164;50.908;18.092;2022-08-25T14:59:50;20.80;;;4.40;;
57331;SDS011;43164;50.908;18.092;2022-08-25T15:02:19;22.30;;;4.90;;
57331;SDS011;43164;50.908;18.092;2022-08-25T15:04:56;26.90;;;4.40;;
57331;SDS011;43164;50.908;18.092;2022-08-25T15:07:28;21.60;;;4.50;;
57331;SDS011;43164;50.908;18.092;2022-08-25T15:10:17;33.90;;;6.00;;
57331;SDS011;43164;50.908;18.092;2022-08-25T15:12:45;26.70;;;5.40;;
57331;SDS011;43164;50.908;18.092;2022-08-25T15:15:13;30.50;;;5.80;;
57331;SDS011;43164;50.908;18.092;2022-08-25T15:17:43;27.70;;;5.30;;
57331;SDS011;43164;50.908;18.092;2022-08-25T15:20:12;24.00;;;5.10;;
57331;SDS011;43164;50.908;18.092;2022-08-25T15:22:42;31.30;;;5.40;;
57331;SDS011;43164;50.908;18.092;2022-08-25T15:25:10;20.80;;;4.80;;
57331;SDS011;43164;50.908;18.092;2022-08-25T15:27:40;30.10;;;5.00;;
57331;SDS011;43164;50.908;18.092;2022-08-25T15:30:08;19.60;;;4.40;;
57331;SDS011;43164;50.908;18.092;2022-08-25T15:32:37;23.00;;;4.50;;
57331;SDS011;43164;50.908;18.092;2022-08-25T15:35:06;25.00;;;5.10;;
57331;SDS011;43164;50.908;18.092;2022-08-25T15:37:35;21.90;;;4.60;;
57331;SDS011;43164;50.908;18.092;2022-08-25T15:40:04;22.70;;;5.10;;
57331;SDS011;43164;50.908;18.092;2022-08-25T15:42:35;21.80;;;4.30;;
57331;SDS011;43164;50.908;18.092;2022-08-25T15:45:04;22.90;;;4.80;;
57331;SDS011;43164;50.908;18.092;2022-08-25T15:47:34;21.10;;;4.80;;
57331;SDS011;43164;50.908;18.092;2022-08-25T15:50:11;21.30;;;4.70;;
57331;SDS011;43164;50.908;18.092;2022-08-25T15:52:43;28.80;;;5.00;;
57331;SDS011;43164;50.908;18.092;2022-08-25T15:55:12;24.40;;;4.90;;
57331;SDS011;43164;50.908;18.092;2022-08-25T15:57:41;28.40;;;5.40;;
57331;SDS011;43164;50.908;18.092;2022-08-25T16:00:09;19.10;;;4.50;;
57331;SDS011;43164;50.908;18.092;2022-08-25T16:02:40;20.90;;;4.80;;
57331;SDS011;43164;50.908;18.092;2022-08-25T16:05:08;19.20;;;4.90;;
57331;SDS011;43164;50.908;18.092;2022-08-25T16:07:38;20.00;;;4.60;;
57331;SDS011;43164;50.908;18.092;2022-08-25T16:10:06;24.70;;;4.50;;
57331;SDS011;43164;50.908;18.092;2022-08-25T16:12:36;26.10;;;4.70;;
57331;SDS011;43164;50.908;18.092;2022-08-25T16:15:06;23.10;;;4.80;;
57331;SDS011;43164;50.908;18.092;2022-08-25T16:17:35;25.50;;;4.50;;
57331;SDS011;43164;50.908;18.092;2022-08-25T16:20:04;23.00;;;5.00;;
57331;SDS011;43164;50.908;18.092;2022-08-25T16:22:33;25.20;;;5.70;;
57331;SDS011;43164;50.908;18.092;2022-08-25T16:25:01;27.10;;;4.70;;
57331;SDS011;43164;50.908;18.092;2022-08-25T16:27:30;22.30;;;4.60;;
57331;SDS011;43164;50.908;18.092;2022-08-25T16:29:58;20.60;;;5.00;;
57331;SDS011;43164;50.908;18.092;2022-08-25T16:35:19;26.60;;;5.30;;
57331;SDS011;43164;50.908;18.092;2022-08-25T16:37:48;19.40;;;5.10;;
57331;SDS011;43164;50.908;18.092;2022-08-25T16:40:15;16.40;;;4.90;;
57331;SDS011;43164;50.908;18.092;2022-08-25T16:42:46;20.40;;;4.70;;